sensor_id;sensor_type;location;lat;lon;timestamp;P1;durP1;ratioP1;P2;durP2;ratioP2
23720;SDS011;42950;52.134;5.578;2022-07-06T00:01:10;5.78;;;1.90;;
23720;SDS011;42950;52.134;5.578;2022-07-06T00:03:36;3.38;;;1.45;;
23720;SDS011;42950;52.134;5.578;2022-07-06T00:06:02;2.63;;;1.45;;
23720;SDS011;42950;52.134;5.578;2022-07-06T00:08:27;7.07;;;1.55;;
23720;SDS011;42950;52.134;5.578;2022-07-06T00:10:53;5.57;;;1.70;;
23720;SDS011;42950;52.134;5.578;2022-07-06T00:13:18;6.85;;;1.60;;
23720;SDS011;42950;52.134;5.578;2022-07-06T00:15:44;4.43;;;1.38;;
23720;SDS011;42950;52.134;5.578;2022-07-06T00:18:10;3.05;;;1.42;;
23720;SDS011;42950;52.134;5.578;2022-07-06T00:20:35;8.10;;;1.83;;
23720;SDS011;42950;52.134;5.578;2022-07-06T00:23:01;3.20;;;1.40;;
23720;SDS011;42950;52.134;5.578;2022-07-06T00:25:26;4.95;;;1.60;;
23720;SDS011;42950;52.134;5.578;2022-07-06T00:27:52;3.58;;;1.77;;
23720;SDS011;42950;52.134;5.578;2022-07-06T00:30:18;2.83;;;1.70;;
23720;SDS011;42950;52.134;5.578;2022-07-06T00:32:43;3.50;;;2.00;;
23720;SDS011;42950;52.134;5.578;2022-07-06T00:35:09;6.35;;;2.05;;
23720;SDS011;42950;52.134;5.578;2022-07-06T00:37:35;5.88;;;2.20;;
23720;SDS011;42950;52.134;5.578;2022-07-06T00:40:00;4.47;;;1.85;;
23720;SDS011;42950;52.134;5.578;2022-07-06T00:42:26;4.00;;;1.80;;
23720;SDS011;42950;52.134;5.578;2022-07-06T00:44:51;6.32;;;2.00;;
23720;SDS011;42950;52.134;5.578;2022-07-06T00:47:17;6.53;;;1.90;;
23720;SDS011;42950;52.134;5.578;2022-07-06T00:49:43;4.15;;;2.15;;
23720;SDS011;42950;52.134;5.578;2022-07-06T00:52:27;5.88;;;1.80;;
23720;SDS011;42950;52.134;5.578;2022-07-06T00:54:53;7.70;;;2.00;;
23720;SDS011;42950;52.134;5.578;2022-07-06T00:57:21;4.75;;;2.15;;
23720;SDS011;42950;52.134;5.578;2022-07-06T00:59:46;4.25;;;1.73;;
23720;SDS011;42950;52.134;5.578;2022-07-06T01:02:12;4.93;;;1.80;;
23720;SDS011;42950;52.134;5.578;2022-07-06T01:04:38;3.47;;;1.70;;
23720;SDS011;42950;52.134;5.578;2022-07-06T01:07:04;3.38;;;1.70;;
23720;SDS011;42950;52.134;5.578;2022-07-06T01:09:30;6.38;;;1.80;;
23720;SDS011;42950;52.134;5.578;2022-07-06T01:11:56;6.07;;;1.90;;
23720;SDS011;42950;52.134;5.578;2022-07-06T01:14:22;3.72;;;1.77;;
23720;SDS011;42950;52.134;5.578;2022-07-06T01:16:48;2.78;;;1.65;;
23720;SDS011;42950;52.134;5.578;2022-07-06T01:19:14;5.22;;;2.33;;
23720;SDS011;42950;52.134;5.578;2022-07-06T01:21:39;3.03;;;1.70;;
23720;SDS011;42950;52.134;5.578;2022-07-06T01:24:06;4.88;;;1.60;;
23720;SDS011;42950;52.134;5.578;2022-07-06T01:26:31;5.07;;;1.85;;
23720;SDS011;42950;52.134;5.578;2022-07-06T01:28:57;4.05;;;1.85;;
23720;SDS011;42950;52.134;5.578;2022-07-06T01:31:24;3.00;;;1.77;;
23720;SDS011;42950;52.134;5.578;2022-07-06T01:33:52;4.97;;;1.63;;
23720;SDS011;42950;52.134;5.578;2022-07-06T01:36:21;7.68;;;2.25;;
23720;SDS011;42950;52.134;5.578;2022-07-06T01:41:14;4.57;;;1.95;;
23720;SDS011;42950;52.134;5.578;2022-07-06T01:43:40;3.80;;;1.70;;
23720;SDS011;42950;52.134;5.578;2022-07-06T01:46:06;4.32;;;1.80;;
23720;SDS011;42950;52.134;5.578;2022-07-06T01:48:32;3.88;;;1.75;;
23720;SDS011;42950;52.134;5.578;2022-07-06T01:50:58;6.30;;;1.88;;
23720;SDS011;42950;52.134;5.578;2022-07-06T01:53:24;3.95;;;1.70;;
23720;SDS011;42950;52.134;5.578;2022-07-06T01:55:50;5.72;;;2.13;;
23720;SDS011;42950;52.134;5.578;2022-07-06T01:58:16;5.50;;;2.00;;
23720;SDS011;42950;52.134;5.578;2022-07-06T02:00:42;3.85;;;2.17;;
23720;SDS011;42950;52.134;5.578;2022-07-06T02:03:08;5.68;;;1.92;;
23720;SDS011;42950;52.134;5.578;2022-07-06T02:05:34;3.15;;;1.83;;
23720;SDS011;42950;52.134;5.578;2022-07-06T02:08:00;4.05;;;1.45;;
23720;SDS011;42950;52.134;5.578;2022-07-06T02:10:26;3.65;;;1.90;;
23720;SDS011;42950;52.134;5.578;2022-07-06T02:12:52;2.53;;;1.77;;
23720;SDS011;42950;52.134;5.578;2022-07-06T02:15:18;7.10;;;1.92;;
23720;SDS011;42950;52.134;5.578;2022-07-06T02:17:45;3.58;;;1.90;;
23720;SDS011;42950;52.134;5.578;2022-07-06T02:20:11;10.85;;;2.00;;
23720;SDS011;42950;52.134;5.578;2022-07-06T02:22:38;3.55;;;1.85;;
23720;SDS011;42950;52.134;5.578;2022-07-06T02:25:04;4.45;;;1.92;;
23720;SDS011;42950;52.134;5.578;2022-07-06T02:27:30;4.10;;;1.85;;
23720;SDS011;42950;52.134;5.578;2022-07-06T02:29:57;5.28;;;1.83;;
23720;SDS011;42950;52.134;5.578;2022-07-06T02:32:22;3.75;;;2.05;;
23720;SDS011;42950;52.134;5.578;2022-07-06T02:34:48;5.05;;;1.90;;
23720;SDS011;42950;52.134;5.578;2022-07-06T02:37:14;3.92;;;1.52;;
23720;SDS011;42950;52.134;5.578;2022-07-06T02:39:40;3.72;;;1.63;;
23720;SDS011;42950;52.134;5.578;2022-07-06T02:42:06;2.97;;;1.52;;
23720;SDS011;42950;52.134;5.578;2022-07-06T02:44:32;5.85;;;1.75;;
23720;SDS011;42950;52.134;5.578;2022-07-06T02:46:58;3.63;;;1.70;;
23720;SDS011;42950;52.134;5.578;2022-07-06T02:49:23;3.65;;;1.70;;
23720;SDS011;42950;52.134;5.578;2022-07-06T02:51:49;4.28;;;1.92;;
23720;SDS011;42950;52.134;5.578;2022-07-06T02:54:15;3.55;;;1.88;;
23720;SDS011;42950;52.134;5.578;2022-07-06T02:56:41;4.38;;;2.00;;
23720;SDS011;42950;52.134;5.578;2022-07-06T02:59:06;5.20;;;1.70;;
23720;SDS011;42950;52.134;5.578;2022-07-06T03:01:32;4.25;;;1.80;;
23720;SDS011;42950;52.134;5.578;2022-07-06T03:03:58;1.95;;;1.30;;
23720;SDS011;42950;52.134;5.578;2022-07-06T03:06:23;3.55;;;1.70;;
23720;SDS011;42950;52.134;5.578;2022-07-06T03:08:49;3.28;;;1.50;;
23720;SDS011;42950;52.134;5.578;2022-07-06T03:11:15;3.83;;;1.55;;
23720;SDS011;42950;52.134;5.578;2022-07-06T03:13:40;5.82;;;1.55;;
23720;SDS011;42950;52.134;5.578;2022-07-06T03:16:06;5.13;;;1.85;;
23720;SDS011;42950;52.134;5.578;2022-07-06T03:18:32;3.88;;;1.70;;
23720;SDS011;42950;52.134;5.578;2022-07-06T03:20:58;3.05;;;1.23;;
23720;SDS011;42950;52.134;5.578;2022-07-06T03:23:24;3.67;;;1.83;;
23720;SDS011;42950;52.134;5.578;2022-07-06T03:25:50;6.53;;;1.67;;
23720;SDS011;42950;52.134;5.578;2022-07-06T03:28:15;4.63;;;1.90;;
23720;SDS011;42950;52.134;5.578;2022-07-06T03:30:41;4.25;;;1.73;;
23720;SDS011;42950;52.134;5.578;2022-07-06T03:33:07;2.90;;;1.50;;
23720;SDS011;42950;52.134;5.578;2022-07-06T03:35:33;3.60;;;1.45;;
23720;SDS011;42950;52.134;5.578;2022-07-06T03:37:59;5.20;;;1.58;;
23720;SDS011;42950;52.134;5.578;2022-07-06T03:40:24;4.22;;;1.58;;
23720;SDS011;42950;52.134;5.578;2022-07-06T03:42:50;3.83;;;1.60;;
23720;SDS011;42950;52.134;5.578;2022-07-06T03:45:16;4.78;;;1.40;;
23720;SDS011;42950;52.134;5.578;2022-07-06T03:47:41;4.10;;;1.35;;
23720;SDS011;42950;52.134;5.578;2022-07-06T03:50:07;3.88;;;1.50;;
23720;SDS011;42950;52.134;5.578;2022-07-06T03:52:34;4.68;;;1.50;;
23720;SDS011;42950;52.134;5.578;2022-07-06T03:55:00;6.75;;;1.98;;
23720;SDS011;42950;52.134;5.578;2022-07-06T03:57:27;2.08;;;1.50;;
23720;SDS011;42950;52.134;5.578;2022-07-06T03:59:53;2.70;;;1.20;;
23720;SDS011;42950;52.134;5.578;2022-07-06T04:02:18;3.13;;;1.40;;
23720;SDS011;42950;52.134;5.578;2022-07-06T04:04:44;4.60;;;1.67;;
23720;SDS011;42950;52.134;5.578;2022-07-06T04:07:09;2.90;;;1.40;;
23720;SDS011;42950;52.134;5.578;2022-07-06T04:09:35;4.18;;;1.40;;
23720;SDS011;42950;52.134;5.578;2022-07-06T04:12:02;3.25;;;1.30;;
23720;SDS011;42950;52.134;5.578;2022-07-06T04:14:27;4.25;;;1.40;;
23720;SDS011;42950;52.134;5.578;2022-07-06T04:16:53;3.45;;;1.55;;
23720;SDS011;42950;52.134;5.578;2022-07-06T04:19:19;5.13;;;1.55;;
23720;SDS011;42950;52.134;5.578;2022-07-06T04:21:44;2.88;;;1.38;;
23720;SDS011;42950;52.134;5.578;2022-07-06T04:24:10;2.20;;;1.20;;
23720;SDS011;42950;52.134;5.578;2022-07-06T04:26:36;5.70;;;1.40;;
23720;SDS011;42950;52.134;5.578;2022-07-06T04:29:01;3.50;;;1.10;;
23720;SDS011;42950;52.134;5.578;2022-07-06T04:31:28;3.70;;;1.48;;
23720;SDS011;42950;52.134;5.578;2022-07-06T04:33:53;2.95;;;1.20;;
23720;SDS011;42950;52.134;5.578;2022-07-06T04:36:19;5.47;;;1.33;;
23720;SDS011;42950;52.134;5.578;2022-07-06T04:38:45;3.90;;;1.40;;
23720;SDS011;42950;52.134;5.578;2022-07-06T04:41:12;3.47;;;1.38;;
23720;SDS011;42950;52.134;5.578;2022-07-06T04:43:38;3.80;;;1.02;;
23720;SDS011;42950;52.134;5.578;2022-07-06T04:46:04;3.20;;;1.45;;
23720;SDS011;42950;52.134;5.578;2022-07-06T04:48:31;3.75;;;1.20;;
23720;SDS011;42950;52.134;5.578;2022-07-06T04:51:01;2.17;;;1.00;;
23720;SDS011;42950;52.134;5.578;2022-07-06T04:53:27;3.45;;;1.10;;
23720;SDS011;42950;52.134;5.578;2022-07-06T04:55:52;2.78;;;1.10;;
23720;SDS011;42950;52.134;5.578;2022-07-06T04:58:18;4.97;;;1.10;;
23720;SDS011;42950;52.134;5.578;2022-07-06T05:00:44;3.00;;;1.10;;
23720;SDS011;42950;52.134;5.578;2022-07-06T05:03:10;4.22;;;1.20;;
23720;SDS011;42950;52.134;5.578;2022-07-06T05:05:37;6.70;;;1.20;;
23720;SDS011;42950;52.134;5.578;2022-07-06T05:08:03;4.63;;;1.40;;
23720;SDS011;42950;52.134;5.578;2022-07-06T05:10:29;5.40;;;1.20;;
23720;SDS011;42950;52.134;5.578;2022-07-06T05:12:56;5.05;;;1.17;;
23720;SDS011;42950;52.134;5.578;2022-07-06T05:15:22;3.92;;;1.25;;
23720;SDS011;42950;52.134;5.578;2022-07-06T05:17:48;3.88;;;1.20;;
23720;SDS011;42950;52.134;5.578;2022-07-06T05:20:15;5.45;;;1.42;;
23720;SDS011;42950;52.134;5.578;2022-07-06T05:22:40;3.28;;;0.95;;
23720;SDS011;42950;52.134;5.578;2022-07-06T05:25:06;4.57;;;1.20;;
23720;SDS011;42950;52.134;5.578;2022-07-06T05:27:32;3.47;;;1.05;;
23720;SDS011;42950;52.134;5.578;2022-07-06T05:29:58;2.85;;;1.10;;
23720;SDS011;42950;52.134;5.578;2022-07-06T05:32:25;6.38;;;1.40;;
23720;SDS011;42950;52.134;5.578;2022-07-06T05:34:50;5.00;;;1.15;;
23720;SDS011;42950;52.134;5.578;2022-07-06T05:37:16;3.50;;;1.00;;
23720;SDS011;42950;52.134;5.578;2022-07-06T05:39:43;3.55;;;1.27;;
23720;SDS011;42950;52.134;5.578;2022-07-06T05:42:10;2.55;;;1.00;;
23720;SDS011;42950;52.134;5.578;2022-07-06T05:44:37;4.00;;;1.20;;
23720;SDS011;42950;52.134;5.578;2022-07-06T05:47:02;2.95;;;1.05;;
23720;SDS011;42950;52.134;5.578;2022-07-06T05:49:48;1.90;;;0.80;;
23720;SDS011;42950;52.134;5.578;2022-07-06T05:52:32;4.32;;;1.10;;
23720;SDS011;42950;52.134;5.578;2022-07-06T05:54:58;3.70;;;1.15;;
23720;SDS011;42950;52.134;5.578;2022-07-06T05:57:24;3.65;;;1.02;;
23720;SDS011;42950;52.134;5.578;2022-07-06T05:59:51;3.17;;;0.93;;
23720;SDS011;42950;52.134;5.578;2022-07-06T06:02:16;2.88;;;1.10;;
23720;SDS011;42950;52.134;5.578;2022-07-06T06:04:42;8.80;;;1.20;;
23720;SDS011;42950;52.134;5.578;2022-07-06T06:07:07;5.63;;;1.10;;
23720;SDS011;42950;52.134;5.578;2022-07-06T06:09:33;4.28;;;1.10;;
23720;SDS011;42950;52.134;5.578;2022-07-06T06:11:59;2.70;;;0.93;;
23720;SDS011;42950;52.134;5.578;2022-07-06T06:14:24;2.70;;;0.77;;
23720;SDS011;42950;52.134;5.578;2022-07-06T06:16:50;2.67;;;1.08;;
23720;SDS011;42950;52.134;5.578;2022-07-06T06:19:16;2.78;;;1.10;;
23720;SDS011;42950;52.134;5.578;2022-07-06T06:21:42;4.10;;;0.90;;
23720;SDS011;42950;52.134;5.578;2022-07-06T06:24:08;5.78;;;0.98;;
23720;SDS011;42950;52.134;5.578;2022-07-06T06:26:33;3.00;;;0.68;;
23720;SDS011;42950;52.134;5.578;2022-07-06T06:28:59;7.13;;;0.70;;
23720;SDS011;42950;52.134;5.578;2022-07-06T06:31:25;4.15;;;0.88;;
23720;SDS011;42950;52.134;5.578;2022-07-06T06:33:50;3.17;;;0.80;;
23720;SDS011;42950;52.134;5.578;2022-07-06T06:36:19;4.22;;;1.38;;
23720;SDS011;42950;52.134;5.578;2022-07-06T06:38:44;2.75;;;0.68;;
23720;SDS011;42950;52.134;5.578;2022-07-06T06:41:10;4.88;;;0.90;;
23720;SDS011;42950;52.134;5.578;2022-07-06T06:43:35;4.15;;;0.65;;
23720;SDS011;42950;52.134;5.578;2022-07-06T06:46:01;4.50;;;0.70;;
23720;SDS011;42950;52.134;5.578;2022-07-06T06:48:27;3.72;;;1.10;;
23720;SDS011;42950;52.134;5.578;2022-07-06T06:50:52;5.85;;;0.70;;
23720;SDS011;42950;52.134;5.578;2022-07-06T06:53:18;2.28;;;0.68;;
23720;SDS011;42950;52.134;5.578;2022-07-06T06:55:43;5.45;;;0.82;;
23720;SDS011;42950;52.134;5.578;2022-07-06T06:58:09;2.25;;;0.63;;
23720;SDS011;42950;52.134;5.578;2022-07-06T07:00:35;4.50;;;1.05;;
23720;SDS011;42950;52.134;5.578;2022-07-06T07:03:00;3.33;;;0.60;;
23720;SDS011;42950;52.134;5.578;2022-07-06T07:05:26;2.15;;;0.60;;
23720;SDS011;42950;52.134;5.578;2022-07-06T07:07:51;4.00;;;0.77;;
23720;SDS011;42950;52.134;5.578;2022-07-06T07:10:17;3.88;;;0.77;;
23720;SDS011;42950;52.134;5.578;2022-07-06T07:12:43;5.45;;;0.90;;
23720;SDS011;42950;52.134;5.578;2022-07-06T07:15:10;5.88;;;0.80;;
23720;SDS011;42950;52.134;5.578;2022-07-06T07:17:36;4.10;;;0.70;;
23720;SDS011;42950;52.134;5.578;2022-07-06T07:20:02;2.70;;;0.57;;
23720;SDS011;42950;52.134;5.578;2022-07-06T07:22:28;1.73;;;0.30;;
23720;SDS011;42950;52.134;5.578;2022-07-06T07:24:55;1.30;;;0.47;;
23720;SDS011;42950;52.134;5.578;2022-07-06T07:27:20;2.42;;;0.50;;
23720;SDS011;42950;52.134;5.578;2022-07-06T07:29:46;1.50;;;0.30;;
23720;SDS011;42950;52.134;5.578;2022-07-06T07:32:12;3.85;;;0.40;;
23720;SDS011;42950;52.134;5.578;2022-07-06T07:34:38;3.42;;;0.40;;
23720;SDS011;42950;52.134;5.578;2022-07-06T07:37:04;2.45;;;0.57;;
23720;SDS011;42950;52.134;5.578;2022-07-06T07:39:30;0.95;;;0.30;;
23720;SDS011;42950;52.134;5.578;2022-07-06T07:41:55;2.17;;;0.50;;
23720;SDS011;42950;52.134;5.578;2022-07-06T07:44:21;3.65;;;0.45;;
23720;SDS011;42950;52.134;5.578;2022-07-06T07:46:46;2.15;;;0.50;;
23720;SDS011;42950;52.134;5.578;2022-07-06T07:49:12;2.47;;;0.40;;
23720;SDS011;42950;52.134;5.578;2022-07-06T07:51:39;1.52;;;0.22;;
23720;SDS011;42950;52.134;5.578;2022-07-06T07:54:06;3.92;;;0.57;;
23720;SDS011;42950;52.134;5.578;2022-07-06T07:56:32;3.72;;;0.45;;
23720;SDS011;42950;52.134;5.578;2022-07-06T07:58:57;2.72;;;0.50;;
23720;SDS011;42950;52.134;5.578;2022-07-06T08:01:24;4.45;;;0.40;;
23720;SDS011;42950;52.134;5.578;2022-07-06T08:03:49;1.00;;;0.30;;
23720;SDS011;42950;52.134;5.578;2022-07-06T08:06:15;1.73;;;0.40;;
23720;SDS011;42950;52.134;5.578;2022-07-06T08:08:43;1.95;;;0.55;;
23720;SDS011;42950;52.134;5.578;2022-07-06T08:11:08;2.00;;;0.40;;
23720;SDS011;42950;52.134;5.578;2022-07-06T08:13:34;2.17;;;0.30;;
23720;SDS011;42950;52.134;5.578;2022-07-06T08:16:01;2.63;;;0.30;;
23720;SDS011;42950;52.134;5.578;2022-07-06T08:18:27;1.92;;;0.30;;
23720;SDS011;42950;52.134;5.578;2022-07-06T08:20:53;1.73;;;0.43;;
23720;SDS011;42950;52.134;5.578;2022-07-06T08:23:21;3.60;;;0.40;;
23720;SDS011;42950;52.134;5.578;2022-07-06T08:25:47;1.42;;;0.50;;
23720;SDS011;42950;52.134;5.578;2022-07-06T08:28:13;3.35;;;0.40;;
23720;SDS011;42950;52.134;5.578;2022-07-06T08:30:38;3.42;;;0.60;;
23720;SDS011;42950;52.134;5.578;2022-07-06T08:33:04;2.97;;;0.47;;
23720;SDS011;42950;52.134;5.578;2022-07-06T08:35:30;1.58;;;0.30;;
23720;SDS011;42950;52.134;5.578;2022-07-06T08:37:56;1.30;;;0.43;;
23720;SDS011;42950;52.134;5.578;2022-07-06T08:40:21;2.15;;;0.40;;
23720;SDS011;42950;52.134;5.578;2022-07-06T08:42:47;4.25;;;0.70;;
23720;SDS011;42950;52.134;5.578;2022-07-06T08:45:19;1.45;;;0.30;;
23720;SDS011;42950;52.134;5.578;2022-07-06T08:47:45;0.98;;;0.38;;
23720;SDS011;42950;52.134;5.578;2022-07-06T08:50:14;0.73;;;0.28;;
23720;SDS011;42950;52.134;5.578;2022-07-06T08:52:41;2.38;;;0.40;;
23720;SDS011;42950;52.134;5.578;2022-07-06T08:55:08;1.65;;;0.43;;
23720;SDS011;42950;52.134;5.578;2022-07-06T08:57:34;2.10;;;0.40;;
23720;SDS011;42950;52.134;5.578;2022-07-06T09:00:00;2.40;;;0.50;;
23720;SDS011;42950;52.134;5.578;2022-07-06T09:02:26;1.95;;;0.40;;
23720;SDS011;42950;52.134;5.578;2022-07-06T09:04:54;0.93;;;0.45;;
23720;SDS011;42950;52.134;5.578;2022-07-06T09:07:21;1.45;;;0.35;;
23720;SDS011;42950;52.134;5.578;2022-07-06T09:09:47;4.55;;;0.60;;
23720;SDS011;42950;52.134;5.578;2022-07-06T09:12:14;0.93;;;0.50;;
23720;SDS011;42950;52.134;5.578;2022-07-06T09:14:40;2.47;;;0.60;;
23720;SDS011;42950;52.134;5.578;2022-07-06T09:17:06;4.88;;;0.60;;
23720;SDS011;42950;52.134;5.578;2022-07-06T09:19:33;1.35;;;0.40;;
23720;SDS011;42950;52.134;5.578;2022-07-06T09:21:59;1.20;;;0.50;;
23720;SDS011;42950;52.134;5.578;2022-07-06T09:24:25;2.72;;;0.65;;
23720;SDS011;42950;52.134;5.578;2022-07-06T09:26:53;3.53;;;0.40;;
23720;SDS011;42950;52.134;5.578;2022-07-06T09:29:28;4.90;;;0.45;;
23720;SDS011;42950;52.134;5.578;2022-07-06T09:32:01;1.80;;;0.50;;
23720;SDS011;42950;52.134;5.578;2022-07-06T09:35:02;1.67;;;0.50;;
23720;SDS011;42950;52.134;5.578;2022-07-06T09:37:21;1.75;;;0.47;;
23720;SDS011;42950;52.134;5.578;2022-07-06T09:39:47;2.90;;;0.40;;
23720;SDS011;42950;52.134;5.578;2022-07-06T09:42:13;1.23;;;0.40;;
23720;SDS011;42950;52.134;5.578;2022-07-06T09:44:40;2.13;;;0.40;;
23720;SDS011;42950;52.134;5.578;2022-07-06T09:47:07;2.35;;;0.40;;
23720;SDS011;42950;52.134;5.578;2022-07-06T09:49:35;1.75;;;0.50;;
23720;SDS011;42950;52.134;5.578;2022-07-06T09:52:02;3.33;;;0.40;;
23720;SDS011;42950;52.134;5.578;2022-07-06T09:54:29;1.88;;;0.50;;
23720;SDS011;42950;52.134;5.578;2022-07-06T09:56:56;1.13;;;0.47;;
23720;SDS011;42950;52.134;5.578;2022-07-06T09:59:23;1.17;;;0.57;;
23720;SDS011;42950;52.134;5.578;2022-07-06T10:01:53;2.10;;;0.50;;
23720;SDS011;42950;52.134;5.578;2022-07-06T10:04:21;2.17;;;0.43;;
23720;SDS011;42950;52.134;5.578;2022-07-06T10:06:48;1.48;;;0.30;;
23720;SDS011;42950;52.134;5.578;2022-07-06T10:09:14;1.67;;;0.55;;
23720;SDS011;42950;52.134;5.578;2022-07-06T10:11:42;2.30;;;0.43;;
23720;SDS011;42950;52.134;5.578;2022-07-06T10:14:12;1.52;;;0.40;;
23720;SDS011;42950;52.134;5.578;2022-07-06T10:16:42;2.83;;;0.40;;
23720;SDS011;42950;52.134;5.578;2022-07-06T10:19:10;1.85;;;0.50;;
23720;SDS011;42950;52.134;5.578;2022-07-06T10:21:36;2.85;;;0.52;;
23720;SDS011;42950;52.134;5.578;2022-07-06T10:24:05;2.83;;;0.65;;
23720;SDS011;42950;52.134;5.578;2022-07-06T10:26:33;2.08;;;0.45;;
23720;SDS011;42950;52.134;5.578;2022-07-06T10:29:00;2.88;;;0.35;;
23720;SDS011;42950;52.134;5.578;2022-07-06T10:31:28;1.83;;;0.68;;
23720;SDS011;42950;52.134;5.578;2022-07-06T10:33:59;2.28;;;0.50;;
23720;SDS011;42950;52.134;5.578;2022-07-06T10:36:25;2.53;;;0.47;;
23720;SDS011;42950;52.134;5.578;2022-07-06T10:38:53;3.17;;;0.50;;
23720;SDS011;42950;52.134;5.578;2022-07-06T10:41:30;2.90;;;0.50;;
23720;SDS011;42950;52.134;5.578;2022-07-06T10:43:56;1.20;;;0.47;;
23720;SDS011;42950;52.134;5.578;2022-07-06T10:46:23;1.98;;;0.60;;
23720;SDS011;42950;52.134;5.578;2022-07-06T10:48:54;2.53;;;0.40;;
23720;SDS011;42950;52.134;5.578;2022-07-06T10:51:23;3.85;;;0.60;;
23720;SDS011;42950;52.134;5.578;2022-07-06T10:53:57;1.17;;;0.40;;
23720;SDS011;42950;52.134;5.578;2022-07-06T10:56:36;2.55;;;0.77;;
23720;SDS011;42950;52.134;5.578;2022-07-06T10:59:17;3.58;;;0.50;;
23720;SDS011;42950;52.134;5.578;2022-07-06T11:04:42;1.70;;;0.35;;
23720;SDS011;42950;52.134;5.578;2022-07-06T11:07:18;1.90;;;0.40;;
23720;SDS011;42950;52.134;5.578;2022-07-06T11:09:54;1.58;;;0.32;;
23720;SDS011;42950;52.134;5.578;2022-07-06T11:12:21;2.45;;;0.40;;
23720;SDS011;42950;52.134;5.578;2022-07-06T11:14:49;1.88;;;0.38;;
23720;SDS011;42950;52.134;5.578;2022-07-06T11:17:16;2.50;;;0.50;;
23720;SDS011;42950;52.134;5.578;2022-07-06T11:19:49;1.55;;;0.60;;
23720;SDS011;42950;52.134;5.578;2022-07-06T11:22:22;4.50;;;0.50;;
23720;SDS011;42950;52.134;5.578;2022-07-06T11:24:49;2.33;;;0.57;;
23720;SDS011;42950;52.134;5.578;2022-07-06T11:27:17;3.15;;;0.50;;
23720;SDS011;42950;52.134;5.578;2022-07-06T11:29:43;1.33;;;0.32;;
23720;SDS011;42950;52.134;5.578;2022-07-06T11:32:11;2.90;;;0.47;;
23720;SDS011;42950;52.134;5.578;2022-07-06T11:34:43;1.13;;;0.40;;
23720;SDS011;42950;52.134;5.578;2022-07-06T11:37:13;2.22;;;0.70;;
23720;SDS011;42950;52.134;5.578;2022-07-06T11:39:40;1.48;;;0.30;;
23720;SDS011;42950;52.134;5.578;2022-07-06T11:42:11;2.22;;;0.60;;
23720;SDS011;42950;52.134;5.578;2022-07-06T11:44:39;1.40;;;0.30;;
23720;SDS011;42950;52.134;5.578;2022-07-06T11:47:07;1.20;;;0.50;;
23720;SDS011;42950;52.134;5.578;2022-07-06T11:49:34;1.48;;;0.40;;
23720;SDS011;42950;52.134;5.578;2022-07-06T11:52:00;2.13;;;0.25;;
23720;SDS011;42950;52.134;5.578;2022-07-06T11:54:34;1.90;;;0.50;;
23720;SDS011;42950;52.134;5.578;2022-07-06T11:57:00;1.63;;;0.40;;
23720;SDS011;42950;52.134;5.578;2022-07-06T11:59:27;4.85;;;0.60;;
23720;SDS011;42950;52.134;5.578;2022-07-06T12:01:58;2.58;;;0.60;;
23720;SDS011;42950;52.134;5.578;2022-07-06T12:04:26;0.68;;;0.20;;
23720;SDS011;42950;52.134;5.578;2022-07-06T12:06:53;1.45;;;0.30;;
23720;SDS011;42950;52.134;5.578;2022-07-06T12:09:19;1.55;;;0.50;;
23720;SDS011;42950;52.134;5.578;2022-07-06T12:11:45;2.65;;;0.60;;
23720;SDS011;42950;52.134;5.578;2022-07-06T12:14:26;1.95;;;0.43;;
23720;SDS011;42950;52.134;5.578;2022-07-06T12:16:52;2.00;;;0.30;;
23720;SDS011;42950;52.134;5.578;2022-07-06T12:19:19;1.05;;;0.30;;
23720;SDS011;42950;52.134;5.578;2022-07-06T12:21:47;1.17;;;0.30;;
23720;SDS011;42950;52.134;5.578;2022-07-06T12:24:21;0.95;;;0.30;;
23720;SDS011;42950;52.134;5.578;2022-07-06T12:26:53;4.82;;;0.60;;
23720;SDS011;42950;52.134;5.578;2022-07-06T12:29:19;2.25;;;0.47;;
23720;SDS011;42950;52.134;5.578;2022-07-06T12:34:22;1.80;;;0.40;;
23720;SDS011;42950;52.134;5.578;2022-07-06T12:36:50;2.65;;;0.50;;
23720;SDS011;42950;52.134;5.578;2022-07-06T12:39:20;1.17;;;0.45;;
23720;SDS011;42950;52.134;5.578;2022-07-06T12:41:51;1.55;;;0.30;;
23720;SDS011;42950;52.134;5.578;2022-07-06T12:44:18;1.83;;;0.40;;
23720;SDS011;42950;52.134;5.578;2022-07-06T12:46:46;1.55;;;0.50;;
23720;SDS011;42950;52.134;5.578;2022-07-06T12:51:48;3.20;;;0.38;;
23720;SDS011;42950;52.134;5.578;2022-07-06T13:05:01;5.10;;;0.50;;
23720;SDS011;42950;52.134;5.578;2022-07-06T13:07:32;2.17;;;0.50;;
23720;SDS011;42950;52.134;5.578;2022-07-06T13:10:05;2.97;;;0.47;;
23720;SDS011;42950;52.134;5.578;2022-07-06T13:12:32;1.05;;;0.30;;
23720;SDS011;42950;52.134;5.578;2022-07-06T13:14:59;3.88;;;0.35;;
23720;SDS011;42950;52.134;5.578;2022-07-06T13:17:24;1.55;;;0.50;;
23720;SDS011;42950;52.134;5.578;2022-07-06T13:19:50;3.28;;;0.40;;
23720;SDS011;42950;52.134;5.578;2022-07-06T13:22:16;1.48;;;0.30;;
23720;SDS011;42950;52.134;5.578;2022-07-06T13:24:41;0.90;;;0.40;;
23720;SDS011;42950;52.134;5.578;2022-07-06T13:27:07;2.78;;;0.50;;
23720;SDS011;42950;52.134;5.578;2022-07-06T13:29:33;3.28;;;0.60;;
23720;SDS011;42950;52.134;5.578;2022-07-06T13:31:59;3.97;;;0.57;;
23720;SDS011;42950;52.134;5.578;2022-07-06T13:34:25;2.45;;;0.45;;
23720;SDS011;42950;52.134;5.578;2022-07-06T13:36:50;1.88;;;0.50;;
23720;SDS011;42950;52.134;5.578;2022-07-06T13:39:17;2.13;;;0.45;;
23720;SDS011;42950;52.134;5.578;2022-07-06T13:41:43;2.10;;;0.57;;
23720;SDS011;42950;52.134;5.578;2022-07-06T13:44:09;2.38;;;0.45;;
23720;SDS011;42950;52.134;5.578;2022-07-06T13:46:36;0.70;;;0.40;;
23720;SDS011;42950;52.134;5.578;2022-07-06T13:49:03;4.75;;;0.50;;
23720;SDS011;42950;52.134;5.578;2022-07-06T13:51:29;2.90;;;0.80;;
23720;SDS011;42950;52.134;5.578;2022-07-06T13:53:56;1.10;;;0.30;;
23720;SDS011;42950;52.134;5.578;2022-07-06T13:56:22;2.17;;;0.50;;
23720;SDS011;42950;52.134;5.578;2022-07-06T13:58:47;2.05;;;0.63;;
23720;SDS011;42950;52.134;5.578;2022-07-06T14:01:13;2.13;;;0.80;;
23720;SDS011;42950;52.134;5.578;2022-07-06T14:03:39;2.00;;;0.50;;
23720;SDS011;42950;52.134;5.578;2022-07-06T14:06:05;2.55;;;0.70;;
23720;SDS011;42950;52.134;5.578;2022-07-06T14:08:33;1.85;;;0.40;;
23720;SDS011;42950;52.134;5.578;2022-07-06T14:10:59;1.75;;;0.60;;
23720;SDS011;42950;52.134;5.578;2022-07-06T14:13:26;1.88;;;0.68;;
23720;SDS011;42950;52.134;5.578;2022-07-06T14:15:52;3.45;;;0.68;;
23720;SDS011;42950;52.134;5.578;2022-07-06T14:18:18;2.30;;;0.55;;
23720;SDS011;42950;52.134;5.578;2022-07-06T14:20:44;2.13;;;0.50;;
23720;SDS011;42950;52.134;5.578;2022-07-06T14:23:11;6.50;;;0.80;;
23720;SDS011;42950;52.134;5.578;2022-07-06T14:25:37;2.45;;;0.80;;
23720;SDS011;42950;52.134;5.578;2022-07-06T14:28:03;3.08;;;1.40;;
23720;SDS011;42950;52.134;5.578;2022-07-06T14:30:29;3.30;;;1.23;;
23720;SDS011;42950;52.134;5.578;2022-07-06T14:32:55;3.47;;;1.30;;
23720;SDS011;42950;52.134;5.578;2022-07-06T14:35:21;4.35;;;1.00;;
23720;SDS011;42950;52.134;5.578;2022-07-06T14:37:47;4.35;;;1.15;;
23720;SDS011;42950;52.134;5.578;2022-07-06T14:40:13;4.93;;;0.82;;
23720;SDS011;42950;52.134;5.578;2022-07-06T14:42:38;6.43;;;0.70;;
23720;SDS011;42950;52.134;5.578;2022-07-06T14:45:04;4.78;;;0.82;;
23720;SDS011;42950;52.134;5.578;2022-07-06T14:47:30;2.47;;;0.65;;
23720;SDS011;42950;52.134;5.578;2022-07-06T14:49:56;1.95;;;0.70;;
23720;SDS011;42950;52.134;5.578;2022-07-06T14:52:21;1.38;;;0.55;;
23720;SDS011;42950;52.134;5.578;2022-07-06T14:54:47;4.20;;;0.90;;
23720;SDS011;42950;52.134;5.578;2022-07-06T14:57:13;2.67;;;1.00;;
23720;SDS011;42950;52.134;5.578;2022-07-06T14:59:38;4.80;;;0.85;;
23720;SDS011;42950;52.134;5.578;2022-07-06T15:02:04;5.38;;;1.10;;
23720;SDS011;42950;52.134;5.578;2022-07-06T15:04:30;3.45;;;0.60;;
23720;SDS011;42950;52.134;5.578;2022-07-06T15:06:57;3.88;;;0.80;;